sensor_id;sensor_type;location;lat;lon;timestamp;P1;durP1;ratioP1;P2;durP2;ratioP2
53281;SDS011;39167;52.794;6.892;2023-01-23T00:00:58;21.55;;;10.20;;
53281;SDS011;39167;52.794;6.892;2023-01-23T00:03:27;18.38;;;10.00;;
53281;SDS011;39167;52.794;6.892;2023-01-23T00:05:57;20.05;;;10.57;;
53281;SDS011;39167;52.794;6.892;2023-01-23T00:08:24;21.63;;;10.73;;
53281;SDS011;39167;52.794;6.892;2023-01-23T00:10:49;25.15;;;11.15;;
53281;SDS011;39167;52.794;6.892;2023-01-23T00:13:15;24.58;;;11.40;;
53281;SDS011;39167;52.794;6.892;2023-01-23T00:15:41;18.75;;;11.07;;
53281;SDS011;39167;52.794;6.892;2023-01-23T00:18:07;19.60;;;10.20;;
53281;SDS011;39167;52.794;6.892;2023-01-23T00:20:35;22.00;;;10.82;;
53281;SDS011;39167;52.794;6.892;2023-01-23T00:23:01;22.92;;;11.25;;
53281;SDS011;39167;52.794;6.892;2023-01-23T00:25:27;21.38;;;10.63;;
53281;SDS011;39167;52.794;6.892;2023-01-23T00:27:53;25.42;;;10.40;;
53281;SDS011;39167;52.794;6.892;2023-01-23T00:30:19;20.73;;;10.85;;
53281;SDS011;39167;52.794;6.892;2023-01-23T00:32:44;21.85;;;10.35;;
53281;SDS011;39167;52.794;6.892;2023-01-23T00:35:10;20.80;;;10.07;;
53281;SDS011;39167;52.794;6.892;2023-01-23T00:37:36;18.13;;;9.88;;
53281;SDS011;39167;52.794;6.892;2023-01-23T00:40:02;22.40;;;10.00;;
53281;SDS011;39167;52.794;6.892;2023-01-23T00:42:28;25.40;;;10.35;;
53281;SDS011;39167;52.794;6.892;2023-01-23T00:44:53;23.75;;;9.90;;
53281;SDS011;39167;52.794;6.892;2023-01-23T00:47:19;28.35;;;12.05;;
53281;SDS011;39167;52.794;6.892;2023-01-23T00:49:45;20.25;;;10.65;;
53281;SDS011;39167;52.794;6.892;2023-01-23T00:52:10;24.10;;;10.40;;
53281;SDS011;39167;52.794;6.892;2023-01-23T00:54:36;23.27;;;10.02;;
53281;SDS011;39167;52.794;6.892;2023-01-23T00:57:03;23.13;;;10.40;;
53281;SDS011;39167;52.794;6.892;2023-01-23T00:59:29;26.73;;;10.93;;
53281;SDS011;39167;52.794;6.892;2023-01-23T01:01:54;19.55;;;10.27;;
53281;SDS011;39167;52.794;6.892;2023-01-23T01:04:20;19.17;;;9.80;;
53281;SDS011;39167;52.794;6.892;2023-01-23T01:06:46;23.70;;;11.23;;
53281;SDS011;39167;52.794;6.892;2023-01-23T01:09:12;22.48;;;10.15;;
53281;SDS011;39167;52.794;6.892;2023-01-23T01:11:38;22.27;;;10.15;;
53281;SDS011;39167;52.794;6.892;2023-01-23T01:14:04;18.00;;;10.43;;
53281;SDS011;39167;52.794;6.892;2023-01-23T01:16:30;19.98;;;10.07;;
53281;SDS011;39167;52.794;6.892;2023-01-23T01:18:55;21.77;;;9.82;;
53281;SDS011;39167;52.794;6.892;2023-01-23T01:21:21;20.80;;;10.00;;
53281;SDS011;39167;52.794;6.892;2023-01-23T01:23:47;19.65;;;10.00;;
53281;SDS011;39167;52.794;6.892;2023-01-23T01:26:13;23.25;;;10.00;;
53281;SDS011;39167;52.794;6.892;2023-01-23T01:28:38;21.40;;;10.32;;
53281;SDS011;39167;52.794;6.892;2023-01-23T01:31:07;15.70;;;9.48;;
53281;SDS011;39167;52.794;6.892;2023-01-23T01:33:36;19.38;;;9.27;;
53281;SDS011;39167;52.794;6.892;2023-01-23T01:36:06;25.52;;;10.15;;
53281;SDS011;39167;52.794;6.892;2023-01-23T01:38:36;23.42;;;10.35;;
53281;SDS011;39167;52.794;6.892;2023-01-23T01:41:02;20.83;;;10.35;;
53281;SDS011;39167;52.794;6.892;2023-01-23T01:43:28;23.70;;;10.02;;
53281;SDS011;39167;52.794;6.892;2023-01-23T01:46:04;20.98;;;10.13;;
53281;SDS011;39167;52.794;6.892;2023-01-23T01:48:56;24.42;;;10.43;;
53281;SDS011;39167;52.794;6.892;2023-01-23T01:51:30;21.20;;;11.32;;
53281;SDS011;39167;52.794;6.892;2023-01-23T01:59:25;22.80;;;10.23;;
53281;SDS011;39167;52.794;6.892;2023-01-23T02:01:57;22.40;;;11.57;;
53281;SDS011;39167;52.794;6.892;2023-01-23T02:04:30;24.33;;;10.32;;
53281;SDS011;39167;52.794;6.892;2023-01-23T02:07:02;20.25;;;11.35;;
53281;SDS011;39167;52.794;6.892;2023-01-23T02:09:33;19.95;;;9.95;;
53281;SDS011;39167;52.794;6.892;2023-01-23T02:12:02;24.48;;;10.65;;
53281;SDS011;39167;52.794;6.892;2023-01-23T02:14:28;21.92;;;10.00;;
53281;SDS011;39167;52.794;6.892;2023-01-23T02:16:54;21.23;;;9.95;;
53281;SDS011;39167;52.794;6.892;2023-01-23T02:19:50;19.42;;;11.13;;
53281;SDS011;39167;52.794;6.892;2023-01-23T02:22:27;22.98;;;10.50;;
53281;SDS011;39167;52.794;6.892;2023-01-23T02:27:44;18.60;;;10.07;;
53281;SDS011;39167;52.794;6.892;2023-01-23T02:30:10;20.73;;;10.13;;
53281;SDS011;39167;52.794;6.892;2023-01-23T02:32:36;23.23;;;11.07;;
53281;SDS011;39167;52.794;6.892;2023-01-23T02:35:04;21.88;;;10.63;;
53281;SDS011;39167;52.794;6.892;2023-01-23T02:37:35;18.90;;;9.07;;
53281;SDS011;39167;52.794;6.892;2023-01-23T02:40:05;16.08;;;9.48;;
53281;SDS011;39167;52.794;6.892;2023-01-23T02:42:31;22.10;;;9.90;;
53281;SDS011;39167;52.794;6.892;2023-01-23T02:44:58;21.52;;;10.32;;
53281;SDS011;39167;52.794;6.892;2023-01-23T02:47:24;24.95;;;11.02;;
53281;SDS011;39167;52.794;6.892;2023-01-23T02:49:50;23.45;;;11.35;;
53281;SDS011;39167;52.794;6.892;2023-01-23T02:52:16;25.58;;;12.02;;
53281;SDS011;39167;52.794;6.892;2023-01-23T02:54:41;22.20;;;10.85;;
53281;SDS011;39167;52.794;6.892;2023-01-23T02:57:07;23.42;;;12.38;;
53281;SDS011;39167;52.794;6.892;2023-01-23T02:59:33;26.45;;;11.52;;
53281;SDS011;39167;52.794;6.892;2023-01-23T03:02:17;20.90;;;10.13;;
53281;SDS011;39167;52.794;6.892;2023-01-23T03:04:43;21.90;;;10.98;;
53281;SDS011;39167;52.794;6.892;2023-01-23T03:07:08;20.45;;;10.93;;
53281;SDS011;39167;52.794;6.892;2023-01-23T03:09:34;24.75;;;11.15;;
53281;SDS011;39167;52.794;6.892;2023-01-23T03:12:00;23.05;;;11.40;;
53281;SDS011;39167;52.794;6.892;2023-01-23T03:14:26;23.77;;;11.27;;
53281;SDS011;39167;52.794;6.892;2023-01-23T03:16:54;23.85;;;11.02;;
53281;SDS011;39167;52.794;6.892;2023-01-23T03:19:20;24.77;;;11.02;;
53281;SDS011;39167;52.794;6.892;2023-01-23T03:21:47;24.85;;;10.80;;
53281;SDS011;39167;52.794;6.892;2023-01-23T03:24:14;23.17;;;11.38;;
53281;SDS011;39167;52.794;6.892;2023-01-23T03:26:41;22.67;;;11.77;;
53281;SDS011;39167;52.794;6.892;2023-01-23T03:29:10;23.38;;;11.25;;
53281;SDS011;39167;52.794;6.892;2023-01-23T03:32:00;22.83;;;11.18;;
53281;SDS011;39167;52.794;6.892;2023-01-23T03:34:27;25.33;;;12.55;;
53281;SDS011;39167;52.794;6.892;2023-01-23T03:36:53;18.60;;;10.70;;
53281;SDS011;39167;52.794;6.892;2023-01-23T03:39:19;19.48;;;10.68;;
53281;SDS011;39167;52.794;6.892;2023-01-23T03:42:03;24.02;;;11.45;;
53281;SDS011;39167;52.794;6.892;2023-01-23T03:44:29;22.63;;;11.07;;
53281;SDS011;39167;52.794;6.892;2023-01-23T03:46:58;19.25;;;10.63;;
53281;SDS011;39167;52.794;6.892;2023-01-23T03:49:23;25.23;;;11.68;;
53281;SDS011;39167;52.794;6.892;2023-01-23T03:51:49;19.40;;;10.35;;
53281;SDS011;39167;52.794;6.892;2023-01-23T03:54:15;21.58;;;10.60;;
53281;SDS011;39167;52.794;6.892;2023-01-23T03:56:41;23.58;;;11.60;;
53281;SDS011;39167;52.794;6.892;2023-01-23T03:59:07;20.98;;;11.27;;
53281;SDS011;39167;52.794;6.892;2023-01-23T04:01:33;20.35;;;10.35;;
53281;SDS011;39167;52.794;6.892;2023-01-23T04:04:00;19.77;;;10.18;;
53281;SDS011;39167;52.794;6.892;2023-01-23T04:06:26;19.63;;;10.95;;
53281;SDS011;39167;52.794;6.892;2023-01-23T04:08:53;17.88;;;11.07;;
53281;SDS011;39167;52.794;6.892;2023-01-23T04:11:18;23.23;;;11.02;;
53281;SDS011;39167;52.794;6.892;2023-01-23T04:13:44;21.15;;;10.80;;
53281;SDS011;39167;52.794;6.892;2023-01-23T04:16:11;25.98;;;10.93;;
53281;SDS011;39167;52.794;6.892;2023-01-23T04:18:36;17.75;;;11.00;;
53281;SDS011;39167;52.794;6.892;2023-01-23T04:21:02;25.38;;;11.35;;
53281;SDS011;39167;52.794;6.892;2023-01-23T04:23:28;20.92;;;11.40;;
53281;SDS011;39167;52.794;6.892;2023-01-23T04:25:54;20.70;;;11.23;;
53281;SDS011;39167;52.794;6.892;2023-01-23T04:28:19;24.52;;;12.07;;
53281;SDS011;39167;52.794;6.892;2023-01-23T04:30:46;27.60;;;11.88;;
53281;SDS011;39167;52.794;6.892;2023-01-23T04:33:13;22.17;;;11.40;;
53281;SDS011;39167;52.794;6.892;2023-01-23T04:35:39;25.40;;;12.38;;
53281;SDS011;39167;52.794;6.892;2023-01-23T04:38:04;26.63;;;12.35;;
53281;SDS011;39167;52.794;6.892;2023-01-23T04:40:30;23.63;;;11.88;;
53281;SDS011;39167;52.794;6.892;2023-01-23T04:42:56;23.63;;;11.95;;
53281;SDS011;39167;52.794;6.892;2023-01-23T04:45:21;22.40;;;11.45;;
53281;SDS011;39167;52.794;6.892;2023-01-23T04:47:47;25.25;;;11.98;;
53281;SDS011;39167;52.794;6.892;2023-01-23T04:50:13;20.98;;;11.93;;
53281;SDS011;39167;52.794;6.892;2023-01-23T04:52:39;23.70;;;11.68;;
53281;SDS011;39167;52.794;6.892;2023-01-23T04:55:05;24.25;;;12.18;;
53281;SDS011;39167;52.794;6.892;2023-01-23T04:57:31;22.70;;;10.82;;
53281;SDS011;39167;52.794;6.892;2023-01-23T04:59:56;23.25;;;10.93;;
53281;SDS011;39167;52.794;6.892;2023-01-23T05:02:22;20.75;;;11.45;;
53281;SDS011;39167;52.794;6.892;2023-01-23T05:04:48;23.33;;;11.43;;
53281;SDS011;39167;52.794;6.892;2023-01-23T05:07:13;18.98;;;11.57;;
53281;SDS011;39167;52.794;6.892;2023-01-23T05:09:39;23.65;;;11.20;;
53281;SDS011;39167;52.794;6.892;2023-01-23T05:12:05;23.85;;;11.27;;
53281;SDS011;39167;52.794;6.892;2023-01-23T05:14:31;19.25;;;10.75;;
53281;SDS011;39167;52.794;6.892;2023-01-23T05:16:57;22.60;;;11.63;;
53281;SDS011;39167;52.794;6.892;2023-01-23T05:19:22;22.88;;;11.27;;
53281;SDS011;39167;52.794;6.892;2023-01-23T05:21:48;16.60;;;10.27;;
53281;SDS011;39167;52.794;6.892;2023-01-23T05:24:14;19.17;;;11.07;;
53281;SDS011;39167;52.794;6.892;2023-01-23T05:26:40;22.17;;;11.98;;
53281;SDS011;39167;52.794;6.892;2023-01-23T05:29:06;23.42;;;10.25;;
53281;SDS011;39167;52.794;6.892;2023-01-23T05:31:32;23.17;;;11.50;;
53281;SDS011;39167;52.794;6.892;2023-01-23T05:33:58;22.63;;;12.05;;
53281;SDS011;39167;52.794;6.892;2023-01-23T05:36:23;27.25;;;12.18;;
53281;SDS011;39167;52.794;6.892;2023-01-23T05:38:49;23.35;;;11.30;;
53281;SDS011;39167;52.794;6.892;2023-01-23T05:41:15;23.63;;;10.70;;
53281;SDS011;39167;52.794;6.892;2023-01-23T05:43:41;19.52;;;11.23;;
53281;SDS011;39167;52.794;6.892;2023-01-23T05:46:07;21.83;;;11.45;;
53281;SDS011;39167;52.794;6.892;2023-01-23T05:48:33;22.27;;;11.73;;
53281;SDS011;39167;52.794;6.892;2023-01-23T05:51:01;18.85;;;10.25;;
53281;SDS011;39167;52.794;6.892;2023-01-23T05:53:27;22.08;;;11.25;;
53281;SDS011;39167;52.794;6.892;2023-01-23T05:55:53;18.98;;;10.50;;
53281;SDS011;39167;52.794;6.892;2023-01-23T05:58:19;19.33;;;10.63;;
53281;SDS011;39167;52.794;6.892;2023-01-23T06:00:44;22.35;;;11.98;;
53281;SDS011;39167;52.794;6.892;2023-01-23T06:03:10;23.20;;;11.63;;
53281;SDS011;39167;52.794;6.892;2023-01-23T06:05:35;19.55;;;11.07;;
53281;SDS011;39167;52.794;6.892;2023-01-23T06:08:01;23.48;;;11.93;;
53281;SDS011;39167;52.794;6.892;2023-01-23T06:10:27;18.83;;;10.63;;
53281;SDS011;39167;52.794;6.892;2023-01-23T06:12:53;24.20;;;10.70;;
53281;SDS011;39167;52.794;6.892;2023-01-23T06:15:18;25.65;;;12.05;;
53281;SDS011;39167;52.794;6.892;2023-01-23T06:17:44;19.90;;;10.65;;
53281;SDS011;39167;52.794;6.892;2023-01-23T06:20:10;20.40;;;11.50;;
53281;SDS011;39167;52.794;6.892;2023-01-23T06:22:36;18.90;;;11.02;;
53281;SDS011;39167;52.794;6.892;2023-01-23T06:25:02;28.27;;;11.43;;
53281;SDS011;39167;52.794;6.892;2023-01-23T06:27:28;20.38;;;11.27;;
53281;SDS011;39167;52.794;6.892;2023-01-23T06:29:54;19.27;;;11.57;;
53281;SDS011;39167;52.794;6.892;2023-01-23T06:32:19;21.13;;;10.70;;
53281;SDS011;39167;52.794;6.892;2023-01-23T06:34:47;25.52;;;11.77;;
53281;SDS011;39167;52.794;6.892;2023-01-23T06:37:13;19.35;;;10.88;;
53281;SDS011;39167;52.794;6.892;2023-01-23T06:39:39;22.02;;;9.95;;
53281;SDS011;39167;52.794;6.892;2023-01-23T06:42:05;20.73;;;11.52;;
53281;SDS011;39167;52.794;6.892;2023-01-23T06:44:37;20.98;;;10.98;;
53281;SDS011;39167;52.794;6.892;2023-01-23T06:47:02;18.95;;;10.80;;
53281;SDS011;39167;52.794;6.892;2023-01-23T06:49:29;20.45;;;10.90;;
53281;SDS011;39167;52.794;6.892;2023-01-23T06:51:54;17.63;;;10.15;;
53281;SDS011;39167;52.794;6.892;2023-01-23T06:54:20;17.23;;;10.23;;
53281;SDS011;39167;52.794;6.892;2023-01-23T06:56:46;22.65;;;10.80;;
53281;SDS011;39167;52.794;6.892;2023-01-23T06:59:13;19.02;;;10.15;;
53281;SDS011;39167;52.794;6.892;2023-01-23T07:01:39;19.15;;;11.02;;
53281;SDS011;39167;52.794;6.892;2023-01-23T07:04:06;18.55;;;11.32;;
53281;SDS011;39167;52.794;6.892;2023-01-23T07:06:33;18.70;;;11.20;;
53281;SDS011;39167;52.794;6.892;2023-01-23T07:08:58;21.63;;;11.52;;
53281;SDS011;39167;52.794;6.892;2023-01-23T07:11:25;19.13;;;11.35;;
53281;SDS011;39167;52.794;6.892;2023-01-23T07:13:51;25.60;;;12.00;;
53281;SDS011;39167;52.794;6.892;2023-01-23T07:16:16;23.75;;;12.50;;
53281;SDS011;39167;52.794;6.892;2023-01-23T07:18:43;22.88;;;12.35;;
53281;SDS011;39167;52.794;6.892;2023-01-23T07:21:08;23.70;;;12.73;;
53281;SDS011;39167;52.794;6.892;2023-01-23T07:23:34;17.80;;;11.18;;
53281;SDS011;39167;52.794;6.892;2023-01-23T07:26:01;21.88;;;11.77;;
53281;SDS011;39167;52.794;6.892;2023-01-23T07:28:28;21.23;;;11.48;;
53281;SDS011;39167;52.794;6.892;2023-01-23T07:30:55;20.17;;;11.32;;
53281;SDS011;39167;52.794;6.892;2023-01-23T07:33:22;21.40;;;11.40;;
53281;SDS011;39167;52.794;6.892;2023-01-23T07:35:48;23.80;;;12.05;;
53281;SDS011;39167;52.794;6.892;2023-01-23T07:38:13;25.35;;;11.68;;
53281;SDS011;39167;52.794;6.892;2023-01-23T07:40:39;21.35;;;11.43;;
53281;SDS011;39167;52.794;6.892;2023-01-23T07:43:06;19.48;;;10.75;;
53281;SDS011;39167;52.794;6.892;2023-01-23T07:45:32;26.15;;;12.00;;
53281;SDS011;39167;52.794;6.892;2023-01-23T07:47:58;18.83;;;11.02;;
53281;SDS011;39167;52.794;6.892;2023-01-23T07:50:23;19.70;;;11.15;;
53281;SDS011;39167;52.794;6.892;2023-01-23T07:52:49;21.00;;;11.23;;
53281;SDS011;39167;52.794;6.892;2023-01-23T07:55:15;20.50;;;10.95;;
53281;SDS011;39167;52.794;6.892;2023-01-23T07:57:41;19.80;;;12.05;;
53281;SDS011;39167;52.794;6.892;2023-01-23T08:00:08;25.10;;;12.07;;
53281;SDS011;39167;52.794;6.892;2023-01-23T08:02:35;23.38;;;12.05;;
53281;SDS011;39167;52.794;6.892;2023-01-23T08:05:02;20.75;;;10.38;;
53281;SDS011;39167;52.794;6.892;2023-01-23T08:07:28;20.85;;;10.77;;
53281;SDS011;39167;52.794;6.892;2023-01-23T08:09:54;19.95;;;11.10;;
53281;SDS011;39167;52.794;6.892;2023-01-23T08:12:20;18.55;;;10.73;;
53281;SDS011;39167;52.794;6.892;2023-01-23T08:14:46;21.30;;;11.23;;
53281;SDS011;39167;52.794;6.892;2023-01-23T08:17:12;25.52;;;11.40;;
53281;SDS011;39167;52.794;6.892;2023-01-23T08:19:38;21.27;;;11.25;;
53281;SDS011;39167;52.794;6.892;2023-01-23T08:22:04;22.40;;;10.27;;
53281;SDS011;39167;52.794;6.892;2023-01-23T08:24:30;20.83;;;10.50;;
53281;SDS011;39167;52.794;6.892;2023-01-23T08:26:56;18.13;;;10.50;;
53281;SDS011;39167;52.794;6.892;2023-01-23T08:29:22;17.30;;;9.85;;
53281;SDS011;39167;52.794;6.892;2023-01-23T08:31:48;21.73;;;11.30;;
53281;SDS011;39167;52.794;6.892;2023-01-23T08:34:13;20.33;;;10.20;;
53281;SDS011;39167;52.794;6.892;2023-01-23T08:36:40;19.27;;;10.07;;
53281;SDS011;39167;52.794;6.892;2023-01-23T08:39:06;19.30;;;10.18;;
53281;SDS011;39167;52.794;6.892;2023-01-23T08:41:31;25.52;;;10.93;;
53281;SDS011;39167;52.794;6.892;2023-01-23T08:43:57;20.85;;;10.27;;
53281;SDS011;39167;52.794;6.892;2023-01-23T08:46:26;17.77;;;9.70;;
53281;SDS011;39167;52.794;6.892;2023-01-23T08:48:53;14.73;;;9.00;;
53281;SDS011;39167;52.794;6.892;2023-01-23T08:51:19;16.52;;;9.25;;
53281;SDS011;39167;52.794;6.892;2023-01-23T08:53:45;20.30;;;9.85;;
53281;SDS011;39167;52.794;6.892;2023-01-23T08:56:16;16.05;;;9.25;;
53281;SDS011;39167;52.794;6.892;2023-01-23T08:58:43;16.95;;;9.23;;
53281;SDS011;39167;52.794;6.892;2023-01-23T09:01:12;18.42;;;9.50;;
53281;SDS011;39167;52.794;6.892;2023-01-23T09:03:40;18.05;;;8.80;;
53281;SDS011;39167;52.794;6.892;2023-01-23T09:06:06;16.80;;;9.27;;
53281;SDS011;39167;52.794;6.892;2023-01-23T09:08:33;17.17;;;9.13;;
53281;SDS011;39167;52.794;6.892;2023-01-23T09:11:02;16.15;;;8.80;;
53281;SDS011;39167;52.794;6.892;2023-01-23T09:13:29;16.27;;;8.67;;
53281;SDS011;39167;52.794;6.892;2023-01-23T09:15:56;16.58;;;9.32;;
53281;SDS011;39167;52.794;6.892;2023-01-23T09:18:22;17.55;;;9.32;;
53281;SDS011;39167;52.794;6.892;2023-01-23T09:20:49;17.67;;;9.25;;
53281;SDS011;39167;52.794;6.892;2023-01-23T09:23:15;15.85;;;9.00;;
53281;SDS011;39167;52.794;6.892;2023-01-23T09:25:41;15.35;;;9.07;;
53281;SDS011;39167;52.794;6.892;2023-01-23T09:28:07;15.75;;;9.25;;
53281;SDS011;39167;52.794;6.892;2023-01-23T09:30:33;18.70;;;9.65;;
53281;SDS011;39167;52.794;6.892;2023-01-23T09:32:59;14.95;;;8.15;;
53281;SDS011;39167;52.794;6.892;2023-01-23T09:35:25;18.48;;;8.82;;
53281;SDS011;39167;52.794;6.892;2023-01-23T09:37:50;18.58;;;8.95;;
53281;SDS011;39167;52.794;6.892;2023-01-23T09:43:21;15.77;;;8.98;;
53281;SDS011;39167;52.794;6.892;2023-01-23T09:46:11;16.40;;;8.70;;
53281;SDS011;39167;52.794;6.892;2023-01-23T09:49:09;15.90;;;8.95;;
53281;SDS011;39167;52.794;6.892;2023-01-23T09:54:49;16.60;;;9.02;;
53281;SDS011;39167;52.794;6.892;2023-01-23T09:57:27;24.13;;;9.57;;
53281;SDS011;39167;52.794;6.892;2023-01-23T10:00:16;17.85;;;8.68;;
53281;SDS011;39167;52.794;6.892;2023-01-23T10:02:56;16.17;;;9.20;;
53281;SDS011;39167;52.794;6.892;2023-01-23T10:05:34;18.45;;;9.10;;
53281;SDS011;39167;52.794;6.892;2023-01-23T10:24:21;15.93;;;9.10;;
53281;SDS011;39167;52.794;6.892;2023-01-23T10:26:51;15.98;;;9.60;;
53281;SDS011;39167;52.794;6.892;2023-01-23T10:29:29;17.63;;;9.50;;
53281;SDS011;39167;52.794;6.892;2023-01-23T10:32:00;18.65;;;9.80;;
53281;SDS011;39167;52.794;6.892;2023-01-23T10:34:45;18.05;;;10.27;;
53281;SDS011;39167;52.794;6.892;2023-01-23T10:37:23;17.95;;;9.93;;
53281;SDS011;39167;52.794;6.892;2023-01-23T10:40:17;19.40;;;9.88;;
53281;SDS011;39167;52.794;6.892;2023-01-23T10:43:10;19.70;;;10.90;;
53281;SDS011;39167;52.794;6.892;2023-01-23T10:45:41;20.23;;;9.60;;
53281;SDS011;39167;52.794;6.892;2023-01-23T10:50:52;17.77;;;10.45;;
53281;SDS011;39167;52.794;6.892;2023-01-23T10:53:19;18.67;;;10.65;;
53281;SDS011;39167;52.794;6.892;2023-01-23T10:55:46;19.60;;;10.63;;
53281;SDS011;39167;52.794;6.892;2023-01-23T11:01:05;20.50;;;10.27;;
53281;SDS011;39167;52.794;6.892;2023-01-23T11:03:46;18.13;;;10.68;;
53281;SDS011;39167;52.794;6.892;2023-01-23T11:06:15;18.25;;;10.43;;
53281;SDS011;39167;52.794;6.892;2023-01-23T11:08:55;18.27;;;9.63;;
53281;SDS011;39167;52.794;6.892;2023-01-23T11:11:25;20.88;;;10.23;;
53281;SDS011;39167;52.794;6.892;2023-01-23T11:17:00;20.75;;;10.90;;
53281;SDS011;39167;52.794;6.892;2023-01-23T11:19:38;28.98;;;11.27;;
53281;SDS011;39167;52.794;6.892;2023-01-23T11:22:06;19.77;;;10.48;;
53281;SDS011;39167;52.794;6.892;2023-01-23T11:24:54;26.25;;;11.35;;
53281;SDS011;39167;52.794;6.892;2023-01-23T11:27:21;19.27;;;10.90;;
53281;SDS011;39167;52.794;6.892;2023-01-23T11:30:02;18.55;;;10.05;;
53281;SDS011;39167;52.794;6.892;2023-01-23T11:32:57;20.83;;;10.60;;
53281;SDS011;39167;52.794;6.892;2023-01-23T11:35:38;21.42;;;11.10;;
53281;SDS011;39167;52.794;6.892;2023-01-23T11:38:09;17.17;;;10.43;;
53281;SDS011;39167;52.794;6.892;2023-01-23T11:40:40;22.17;;;10.05;;
53281;SDS011;39167;52.794;6.892;2023-01-23T11:43:12;17.00;;;9.85;;
53281;SDS011;39167;52.794;6.892;2023-01-23T11:51:02;18.52;;;10.75;;
53281;SDS011;39167;52.794;6.892;2023-01-23T11:53:38;20.48;;;10.75;;
53281;SDS011;39167;52.794;6.892;2023-01-23T11:59:43;18.67;;;10.65;;
53281;SDS011;39167;52.794;6.892;2023-01-23T12:05:07;18.52;;;10.43;;
53281;SDS011;39167;52.794;6.892;2023-01-23T12:27:48;18.95;;;10.48;;
53281;SDS011;39167;52.794;6.892;2023-01-23T12:30:30;17.55;;;9.70;;
53281;SDS011;39167;52.794;6.892;2023-01-23T12:41:48;19.65;;;9.80;;
53281;SDS011;39167;52.794;6.892;2023-01-23T12:44:18;19.20;;;10.95;;
53281;SDS011;39167;52.794;6.892;2023-01-23T12:52:16;17.02;;;9.75;;
53281;SDS011;39167;52.794;6.892;2023-01-23T12:54:50;20.05;;;11.02;;
53281;SDS011;39167;52.794;6.892;2023-01-23T12:57:25;18.55;;;10.48;;
53281;SDS011;39167;52.794;6.892;2023-01-23T13:02:45;17.20;;;10.05;;
53281;SDS011;39167;52.794;6.892;2023-01-23T13:05:28;21.23;;;10.35;;
53281;SDS011;39167;52.794;6.892;2023-01-23T13:08:19;17.83;;;10.07;;
53281;SDS011;39167;52.794;6.892;2023-01-23T13:13:49;17.58;;;10.27;;
53281;SDS011;39167;52.794;6.892;2023-01-23T13:16:16;18.17;;;9.27;;
53281;SDS011;39167;52.794;6.892;2023-01-23T13:18:58;20.92;;;10.80;;
53281;SDS011;39167;52.794;6.892;2023-01-23T13:29:58;18.58;;;10.57;;
53281;SDS011;39167;52.794;6.892;2023-01-23T13:32:29;18.90;;;10.57;;
53281;SDS011;39167;52.794;6.892;2023-01-23T13:34:55;21.58;;;11.05;;
53281;SDS011;39167;52.794;6.892;2023-01-23T13:40:24;20.65;;;10.98;;
53281;SDS011;39167;52.794;6.892;2023-01-23T13:42:50;21.45;;;11.20;;
53281;SDS011;39167;52.794;6.892;2023-01-23T13:53:47;18.88;;;10.88;;
53281;SDS011;39167;52.794;6.892;2023-01-23T13:56:33;16.95;;;9.88;;
53281;SDS011;39167;52.794;6.892;2023-01-23T13:59:15;19.30;;;10.47;;
53281;SDS011;39167;52.794;6.892;2023-01-23T14:02:00;20.75;;;11.15;;
53281;SDS011;39167;52.794;6.892;2023-01-23T14:05:06;19.30;;;11.35;;
53281;SDS011;39167;52.794;6.892;2023-01-23T14:07:39;19.40;;;11.63;;
53281;SDS011;39167;52.794;6.892;2023-01-23T14:12:50;19.35;;;10.68;;
53281;SDS011;39167;52.794;6.892;2023-01-23T14:15:36;19.92;;;11.57;;
53281;SDS011;39167;52.794;6.892;2023-01-23T14:21:14;20.63;;;11.55;;
53281;SDS011;39167;52.794;6.892;2023-01-23T14:23:57;20.88;;;11.57;;
53281;SDS011;39167;52.794;6.892;2023-01-23T14:26:32;17.70;;;11.07;;
53281;SDS011;39167;52.794;6.892;2023-01-23T14:29:00;20.38;;;11.80;;
53281;SDS011;39167;52.794;6.892;2023-01-23T14:31:35;18.52;;;10.15;;
53281;SDS011;39167;52.794;6.892;2023-01-23T14:34:05;21.13;;;11.27;;
53281;SDS011;39167;52.794;6.892;2023-01-23T14:36:40;20.67;;;11.48;;
53281;SDS011;39167;52.794;6.892;2023-01-23T14:39:15;18.38;;;10.88;;
53281;SDS011;39167;52.794;6.892;2023-01-23T14:41:43;21.23;;;12.05;;
53281;SDS011;39167;52.794;6.892;2023-01-23T14:44:16;24.02;;;12.65;;
53281;SDS011;39167;52.794;6.892;2023-01-23T14:47:00;21.50;;;12.00;;
53281;SDS011;39167;52.794;6.892;2023-01-23T14:49:34;23.33;;;12.40;;
53281;SDS011;39167;52.794;6.892;2023-01-23T14:52:05;22.88;;;12.93;;
53281;SDS011;39167;52.794;6.892;2023-01-23T14:54:31;21.00;;;11.60;;
53281;SDS011;39167;52.794;6.892;2023-01-23T14:57:01;25.52;;;12.45;;
53281;SDS011;39167;52.794;6.892;2023-01-23T14:59:31;23.50;;;12.95;;
53281;SDS011;39167;52.794;6.892;2023-01-23T15:02:01;22.75;;;12.63;;
53281;SDS011;39167;52.794;6.892;2023-01-23T15:05:05;21.38;;;11.40;;
53281;SDS011;39167;52.794;6.892;2023-01-23T15:15:29;22.27;;;12.20;;
53281;SDS011;39167;52.794;6.892;2023-01-23T15:17:58;20.50;;;12.02;;
53281;SDS011;39167;52.794;6.892;2023-01-23T15:23:23;22.95;;;12.80;;
53281;SDS011;39167;52.794;6.892;2023-01-23T15:25:46;25.05;;;13.05;;
53281;SDS011;39167;52.794;6.892;2023-01-23T15:31:33;24.92;;;12.40;;
53281;SDS011;39167;52.794;6.892;2023-01-23T15:39:32;22.27;;;12.77;;
53281;SDS011;39167;52.794;6.892;2023-01-23T15:44:43;22.33;;;12.55;;
53281;SDS011;39167;52.794;6.892;2023-01-23T15:47:09;24.25;;;13.07;;
53281;SDS011;39167;52.794;6.892;2023-01-23T15:49:36;23.15;;;12.88;;
53281;SDS011;39167;52.794;6.892;2023-01-23T15:54:56;21.63;;;12.93;;
53281;SDS011;39167;52.794;6.892;2023-01-23T15:57:27;22.63;;;12.93;;
53281;SDS011;39167;52.794;6.892;2023-01-23T15:59:53;21.52;;;13.00;;
53281;SDS011;39167;52.794;6.892;2023-01-23T16:02:19;21.17;;;12.27;;
53281;SDS011;39167;52.794;6.892;2023-01-23T16:04:46;22.60;;;12.07;;
53281;SDS011;39167;52.794;6.892;2023-01-23T16:07:18;25.17;;;13.18;;
53281;SDS011;39167;52.794;6.892;2023-01-23T16:09:53;26.10;;;13.93;;
53281;SDS011;39167;52.794;6.892;2023-01-23T16:12:20;22.40;;;13.00;;
53281;SDS011;39167;52.794;6.892;2023-01-23T16:14:51;20.90;;;12.40;;
53281;SDS011;39167;52.794;6.892;2023-01-23T16:17:18;26.42;;;13.45;;
53281;SDS011;39167;52.794;6.892;2023-01-23T16:19:44;21.63;;;13.15;;
53281;SDS011;39167;52.794;6.892;2023-01-23T16:22:14;19.30;;;12.00;;
53281;SDS011;39167;52.794;6.892;2023-01-23T16:24:50;22.55;;;12.27;;
53281;SDS011;39167;52.794;6.892;2023-01-23T16:27:17;20.80;;;12.60;;
53281;SDS011;39167;52.794;6.892;2023-01-23T16:29:44;20.60;;;12.50;;
53281;SDS011;39167;52.794;6.892;2023-01-23T16:32:10;20.40;;;12.50;;
53281;SDS011;39167;52.794;6.892;2023-01-23T16:34:36;22.70;;;13.05;;
53281;SDS011;39167;52.794;6.892;2023-01-23T16:37:02;22.48;;;12.88;;
53281;SDS011;39167;52.794;6.892;2023-01-23T16:39:28;22.58;;;12.75;;
53281;SDS011;39167;52.794;6.892;2023-01-23T16:41:56;25.90;;;13.63;;
53281;SDS011;39167;52.794;6.892;2023-01-23T16:44:22;21.42;;;12.63;;
53281;SDS011;39167;52.794;6.892;2023-01-23T16:46:49;21.58;;;12.52;;
53281;SDS011;39167;52.794;6.892;2023-01-23T16:49:16;20.90;;;12.05;;
53281;SDS011;39167;52.794;6.892;2023-01-23T16:51:43;21.33;;;11.88;;
53281;SDS011;39167;52.794;6.892;2023-01-23T16:54:14;19.33;;;12.10;;
53281;SDS011;39167;52.794;6.892;2023-01-23T16:56:41;24.30;;;12.00;;